sensor_id;sensor_type;location;lat;lon;timestamp;pressure;altitude;pressure_sealevel;temperature;humidity
50854;BME280;44154;45.506;-122.806;2023-04-02T00:00:31;100769.41;;;25.36;31.83
50854;BME280;44154;45.506;-122.806;2023-04-02T00:03:00;100778.97;;;25.34;31.64
50854;BME280;44154;45.506;-122.806;2023-04-02T00:05:43;100765.22;;;25.28;31.66
50854;BME280;44154;45.506;-122.806;2023-04-02T00:08:28;100750.34;;;25.19;31.89
50854;BME280;44154;45.506;-122.806;2023-04-02T00:11:03;100756.13;;;25.23;31.98
50854;BME280;44154;45.506;-122.806;2023-04-02T00:13:34;100763.69;;;25.38;31.74
50854;BME280;44154;45.506;-122.806;2023-04-02T00:16:04;100767.16;;;25.60;31.24
50854;BME280;44154;45.506;-122.806;2023-04-02T00:18:32;100772.91;;;25.64;31.21
50854;BME280;44154;45.506;-122.806;2023-04-02T00:23:41;100784.91;;;25.53;31.38
50854;BME280;44154;45.506;-122.806;2023-04-02T00:26:23;100789.72;;;25.40;31.25
50854;BME280;44154;45.506;-122.806;2023-04-02T00:28:53;100800.41;;;25.37;31.49
50854;BME280;44154;45.506;-122.806;2023-04-02T00:31:19;100795.47;;;25.39;31.38
50854;BME280;44154;45.506;-122.806;2023-04-02T00:33:47;100804.50;;;25.39;31.53
50854;BME280;44154;45.506;-122.806;2023-04-02T00:36:14;100799.81;;;25.35;31.28
50854;BME280;44154;45.506;-122.806;2023-04-02T00:38:41;100797.59;;;25.32;31.35
50854;BME280;44154;45.506;-122.806;2023-04-02T00:41:28;100797.22;;;25.23;31.44
50854;BME280;44154;45.506;-122.806;2023-04-02T00:43:58;100788.69;;;25.19;31.74
50854;BME280;44154;45.506;-122.806;2023-04-02T00:46:32;100785.19;;;25.24;31.48
50854;BME280;44154;45.506;-122.806;2023-04-02T00:49:37;100793.34;;;25.46;31.20
50854;BME280;44154;45.506;-122.806;2023-04-02T00:52:16;100798.97;;;25.67;30.78
50854;BME280;44154;45.506;-122.806;2023-04-02T00:57:25;100806.31;;;25.61;31.03
50854;BME280;44154;45.506;-122.806;2023-04-02T01:00:03;100795.59;;;25.54;30.89
50854;BME280;44154;45.506;-122.806;2023-04-02T01:02:37;100801.63;;;25.51;31.06
50854;BME280;44154;45.506;-122.806;2023-04-02T01:15:48;100800.25;;;25.26;31.53
50854;BME280;44154;45.506;-122.806;2023-04-02T01:18:43;100801.28;;;25.20;31.22
50854;BME280;44154;45.506;-122.806;2023-04-02T01:21:28;100797.47;;;25.21;31.36
50854;BME280;44154;45.506;-122.806;2023-04-02T01:24:06;100800.25;;;25.26;31.51
50854;BME280;44154;45.506;-122.806;2023-04-02T01:29:41;100800.31;;;25.64;30.86
50854;BME280;44154;45.506;-122.806;2023-04-02T01:32:12;100823.09;;;25.65;31.06
50854;BME280;44154;45.506;-122.806;2023-04-02T01:34:40;100819.22;;;25.60;30.97
50854;BME280;44154;45.506;-122.806;2023-04-02T01:40:08;100821.25;;;25.43;30.92
50854;BME280;44154;45.506;-122.806;2023-04-02T01:45:19;100833.69;;;25.28;30.83
50854;BME280;44154;45.506;-122.806;2023-04-02T01:47:46;100832.00;;;25.22;31.18
50854;BME280;44154;45.506;-122.806;2023-04-02T01:52:54;100836.72;;;25.27;31.36
50854;BME280;44154;45.506;-122.806;2023-04-02T01:55:43;100819.91;;;25.18;31.67
50854;BME280;44154;45.506;-122.806;2023-04-02T01:58:12;100840.34;;;25.33;31.48
50854;BME280;44154;45.506;-122.806;2023-04-02T02:01:41;100839.56;;;25.37;31.69
50854;BME280;44154;45.506;-122.806;2023-04-02T02:03:48;100829.66;;;25.63;31.62
50854;BME280;44154;45.506;-122.806;2023-04-02T02:06:16;100833.81;;;25.71;31.70
50854;BME280;44154;45.506;-122.806;2023-04-02T02:11:18;100829.38;;;25.65;31.89
50854;BME280;44154;45.506;-122.806;2023-04-02T02:13:51;100837.88;;;25.63;31.49
50854;BME280;44154;45.506;-122.806;2023-04-02T02:16:19;100829.84;;;25.57;31.80
50854;BME280;44154;45.506;-122.806;2023-04-02T02:18:50;100827.66;;;25.54;31.82
50854;BME280;44154;45.506;-122.806;2023-04-02T02:23:59;100818.09;;;25.29;29.63
50854;BME280;44154;45.506;-122.806;2023-04-02T02:26:27;100822.41;;;24.98;27.36
50854;BME280;44154;45.506;-122.806;2023-04-02T02:28:55;100816.66;;;24.72;27.11
50854;BME280;44154;45.506;-122.806;2023-04-02T02:31:28;100809.88;;;24.57;27.08
50854;BME280;44154;45.506;-122.806;2023-04-02T02:34:01;100812.06;;;24.77;27.64
50854;BME280;44154;45.506;-122.806;2023-04-02T02:36:47;100818.16;;;25.07;27.25
50854;BME280;44154;45.506;-122.806;2023-04-02T02:42:07;100805.13;;;25.47;26.08
50854;BME280;44154;45.506;-122.806;2023-04-02T02:44:40;100813.00;;;25.38;25.15
50854;BME280;44154;45.506;-122.806;2023-04-02T02:47:14;100807.28;;;25.17;25.20
50854;BME280;44154;45.506;-122.806;2023-04-02T02:49:47;100832.63;;;25.02;26.10
50854;BME280;44154;45.506;-122.806;2023-04-02T02:52:35;100819.78;;;24.81;25.19
50854;BME280;44154;45.506;-122.806;2023-04-02T02:55:05;100826.50;;;24.51;25.81
50854;BME280;44154;45.506;-122.806;2023-04-02T02:57:38;100835.31;;;24.36;26.63
50854;BME280;44154;45.506;-122.806;2023-04-02T03:00:08;100819.81;;;24.41;26.34
50854;BME280;44154;45.506;-122.806;2023-04-02T03:02:38;100810.31;;;24.27;26.01
50854;BME280;44154;45.506;-122.806;2023-04-02T03:05:06;100829.09;;;24.40;25.99
50854;BME280;44154;45.506;-122.806;2023-04-02T03:07:33;100827.66;;;24.55;25.87
50854;BME280;44154;45.506;-122.806;2023-04-02T03:10:19;100825.13;;;24.70;25.89
50854;BME280;44154;45.506;-122.806;2023-04-02T03:21:35;100848.38;;;24.68;26.58
50854;BME280;44154;45.506;-122.806;2023-04-02T03:24:46;100840.34;;;24.61;27.14
50854;BME280;44154;45.506;-122.806;2023-04-02T03:26:51;100831.44;;;24.71;27.41
50854;BME280;44154;45.506;-122.806;2023-04-02T03:29:26;100840.22;;;24.95;27.29
50854;BME280;44154;45.506;-122.806;2023-04-02T03:32:02;100825.91;;;25.15;26.91
50854;BME280;44154;45.506;-122.806;2023-04-02T03:34:39;100848.88;;;25.36;26.22
50854;BME280;44154;45.506;-122.806;2023-04-02T03:37:15;100857.66;;;25.38;25.96
50854;BME280;44154;45.506;-122.806;2023-04-02T03:40:06;100869.97;;;25.36;25.92
50854;BME280;44154;45.506;-122.806;2023-04-02T03:43:02;100862.28;;;25.33;25.71
50854;BME280;44154;45.506;-122.806;2023-04-02T03:45:31;100854.53;;;25.30;25.88
50854;BME280;44154;45.506;-122.806;2023-04-02T03:48:03;100837.94;;;25.14;25.77
50854;BME280;44154;45.506;-122.806;2023-04-02T03:53:27;100836.47;;;25.06;27.05
50854;BME280;44154;45.506;-122.806;2023-04-02T03:55:54;100846.59;;;25.06;27.70
50854;BME280;44154;45.506;-122.806;2023-04-02T03:58:45;100846.94;;;25.09;27.83
50854;BME280;44154;45.506;-122.806;2023-04-02T04:01:27;100855.22;;;25.42;27.55
50854;BME280;44154;45.506;-122.806;2023-04-02T04:04:03;100849.84;;;25.52;26.60
50854;BME280;44154;45.506;-122.806;2023-04-02T04:06:33;100858.38;;;25.56;26.21
50854;BME280;44154;45.506;-122.806;2023-04-02T04:12:11;100877.72;;;25.44;26.38
50854;BME280;44154;45.506;-122.806;2023-04-02T04:14:42;100878.22;;;25.41;26.32
50854;BME280;44154;45.506;-122.806;2023-04-02T04:17:26;100880.34;;;25.34;26.36
50854;BME280;44154;45.506;-122.806;2023-04-02T04:22:40;100892.41;;;25.33;27.08
50854;BME280;44154;45.506;-122.806;2023-04-02T04:25:20;100889.94;;;25.31;28.23
50854;BME280;44154;45.506;-122.806;2023-04-02T04:28:14;100900.88;;;25.31;28.34
50854;BME280;44154;45.506;-122.806;2023-04-02T04:30:59;100904.44;;;25.59;27.85
50854;BME280;44154;45.506;-122.806;2023-04-02T04:33:41;100884.22;;;25.65;26.88
50854;BME280;44154;45.506;-122.806;2023-04-02T04:36:42;100884.22;;;25.65;26.71
50854;BME280;44154;45.506;-122.806;2023-04-02T04:39:07;100880.13;;;25.68;26.46
50854;BME280;44154;45.506;-122.806;2023-04-02T04:41:40;100880.28;;;25.56;26.59
50854;BME280;44154;45.506;-122.806;2023-04-02T04:44:27;100893.13;;;25.50;26.57
50854;BME280;44154;45.506;-122.806;2023-04-02T04:47:06;100884.81;;;25.40;26.99
50854;BME280;44154;45.506;-122.806;2023-04-02T04:49:41;100869.50;;;25.22;26.86
50854;BME280;44154;45.506;-122.806;2023-04-02T04:52:36;100886.06;;;25.32;27.60
50854;BME280;44154;45.506;-122.806;2023-04-02T04:55:14;100872.56;;;25.25;28.95
50854;BME280;44154;45.506;-122.806;2023-04-02T04:57:47;100871.09;;;25.40;28.67
50854;BME280;44154;45.506;-122.806;2023-04-02T05:00:17;100861.47;;;25.65;28.12
50854;BME280;44154;45.506;-122.806;2023-04-02T05:03:04;100857.66;;;25.71;27.29
50854;BME280;44154;45.506;-122.806;2023-04-02T05:05:37;100856.28;;;25.68;27.20
50854;BME280;44154;45.506;-122.806;2023-04-02T05:08:12;100852.66;;;25.62;26.89
50854;BME280;44154;45.506;-122.806;2023-04-02T05:10:52;100845.75;;;25.55;27.10
50854;BME280;44154;45.506;-122.806;2023-04-02T05:13:38;100845.66;;;25.44;26.94
50854;BME280;44154;45.506;-122.806;2023-04-02T05:16:35;100852.47;;;25.42;27.02
50854;BME280;44154;45.506;-122.806;2023-04-02T05:19:13;100839.88;;;25.41;26.76
50854;BME280;44154;45.506;-122.806;2023-04-02T05:27:03;100821.63;;;25.57;28.48
50854;BME280;44154;45.506;-122.806;2023-04-02T05:29:37;100824.31;;;25.79;27.52
50854;BME280;44154;45.506;-122.806;2023-04-02T05:32:13;100810.00;;;25.72;27.02
50854;BME280;44154;45.506;-122.806;2023-04-02T05:34:41;100816.28;;;25.72;27.15
50854;BME280;44154;45.506;-122.806;2023-04-02T05:37:22;100815.41;;;25.67;26.77
50854;BME280;44154;45.506;-122.806;2023-04-02T05:39:57;100800.78;;;25.51;26.89
50854;BME280;44154;45.506;-122.806;2023-04-02T05:42:30;100815.06;;;25.53;26.79
50854;BME280;44154;45.506;-122.806;2023-04-02T05:47:45;100803.69;;;25.39;26.96
50854;BME280;44154;45.506;-122.806;2023-04-02T05:50:20;100796.53;;;25.33;27.57
50854;BME280;44154;45.506;-122.806;2023-04-02T05:53:08;100800.06;;;25.33;29.01
50854;BME280;44154;45.506;-122.806;2023-04-02T06:01:00;100805.56;;;25.66;27.50
50854;BME280;44154;45.506;-122.806;2023-04-02T06:09:17;100798.03;;;25.51;27.16
50854;BME280;44154;45.506;-122.806;2023-04-02T06:11:55;100788.91;;;25.40;27.29
50854;BME280;44154;45.506;-122.806;2023-04-02T06:14:23;100791.75;;;25.28;27.20
50854;BME280;44154;45.506;-122.806;2023-04-02T06:16:49;100790.31;;;25.15;27.23
50854;BME280;44154;45.506;-122.806;2023-04-02T06:19:30;100804.72;;;25.05;27.09
50854;BME280;44154;45.506;-122.806;2023-04-02T06:22:06;100779.91;;;24.90;27.27
50854;BME280;44154;45.506;-122.806;2023-04-02T06:24:35;100792.78;;;24.89;27.22
50854;BME280;44154;45.506;-122.806;2023-04-02T06:27:05;100799.25;;;24.83;28.06
50854;BME280;44154;45.506;-122.806;2023-04-02T06:29:37;100800.94;;;24.84;27.99
50854;BME280;44154;45.506;-122.806;2023-04-02T06:32:08;100805.50;;;24.79;28.29
50854;BME280;44154;45.506;-122.806;2023-04-02T06:34:37;100789.91;;;24.79;28.30
50854;BME280;44154;45.506;-122.806;2023-04-02T06:37:26;100802.00;;;24.83;28.54
50854;BME280;44154;45.506;-122.806;2023-04-02T06:39:56;100791.13;;;24.88;28.54
50854;BME280;44154;45.506;-122.806;2023-04-02T06:42:43;100792.00;;;24.94;28.93
50854;BME280;44154;45.506;-122.806;2023-04-02T06:45:22;100794.47;;;24.96;29.29
50854;BME280;44154;45.506;-122.806;2023-04-02T06:47:50;100780.72;;;24.90;29.33
50854;BME280;44154;45.506;-122.806;2023-04-02T06:53:09;100783.38;;;25.07;32.59
50854;BME280;44154;45.506;-122.806;2023-04-02T06:58:43;100771.06;;;25.37;31.56
50854;BME280;44154;45.506;-122.806;2023-04-02T07:01:15;100770.59;;;25.45;30.52
50854;BME280;44154;45.506;-122.806;2023-04-02T07:03:42;100762.88;;;25.42;30.43
50854;BME280;44154;45.506;-122.806;2023-04-02T07:06:17;100767.81;;;25.40;31.05
50854;BME280;44154;45.506;-122.806;2023-04-02T07:08:43;100757.56;;;25.31;30.66
50854;BME280;44154;45.506;-122.806;2023-04-02T07:11:14;100737.16;;;25.16;30.82
50854;BME280;44154;45.506;-122.806;2023-04-02T07:13:42;100761.59;;;25.23;31.00
50854;BME280;44154;45.506;-122.806;2023-04-02T07:16:22;100770.03;;;25.16;30.85
50854;BME280;44154;45.506;-122.806;2023-04-02T07:18:52;100756.84;;;25.13;30.83
50854;BME280;44154;45.506;-122.806;2023-04-02T07:21:24;100758.47;;;25.09;30.98
50854;BME280;44154;45.506;-122.806;2023-04-02T07:23:52;100749.38;;;25.03;30.98
50854;BME280;44154;45.506;-122.806;2023-04-02T07:26:21;100745.50;;;24.99;31.33
50854;BME280;44154;45.506;-122.806;2023-04-02T07:28:48;100739.66;;;24.90;31.31
50854;BME280;44154;45.506;-122.806;2023-04-02T07:31:20;100738.28;;;24.88;31.26
50854;BME280;44154;45.506;-122.806;2023-04-02T07:33:46;100752.38;;;25.02;31.18
50854;BME280;44154;45.506;-122.806;2023-04-02T07:36:18;100749.84;;;25.22;31.39
50854;BME280;44154;45.506;-122.806;2023-04-02T07:38:45;100741.50;;;25.39;31.17
50854;BME280;44154;45.506;-122.806;2023-04-02T07:41:11;100742.44;;;25.55;31.71
50854;BME280;44154;45.506;-122.806;2023-04-02T07:43:38;100744.63;;;25.53;31.77
50854;BME280;44154;45.506;-122.806;2023-04-02T07:46:05;100738.00;;;25.49;31.86
50854;BME280;44154;45.506;-122.806;2023-04-02T07:48:31;100740.13;;;25.37;31.70
50854;BME280;44154;45.506;-122.806;2023-04-02T07:50:58;100744.97;;;25.30;31.65
50854;BME280;44154;45.506;-122.806;2023-04-02T07:53:32;100728.94;;;25.16;31.21
50854;BME280;44154;45.506;-122.806;2023-04-02T07:56:01;100741.56;;;25.17;31.07
50854;BME280;44154;45.506;-122.806;2023-04-02T07:58:29;100746.16;;;25.11;31.03
50854;BME280;44154;45.506;-122.806;2023-04-02T08:00:55;100731.03;;;25.04;30.98
50854;BME280;44154;45.506;-122.806;2023-04-02T08:03:22;100735.38;;;25.00;31.06
50854;BME280;44154;45.506;-122.806;2023-04-02T08:05:56;100724.38;;;24.94;30.93
50854;BME280;44154;45.506;-122.806;2023-04-02T08:08:24;100724.09;;;24.91;30.91
50854;BME280;44154;45.506;-122.806;2023-04-02T08:10:50;100703.38;;;24.73;30.86
50854;BME280;44154;45.506;-122.806;2023-04-02T08:13:17;100715.53;;;24.87;31.17
50854;BME280;44154;45.506;-122.806;2023-04-02T08:15:44;100699.13;;;24.87;31.95
50854;BME280;44154;45.506;-122.806;2023-04-02T08:18:10;100718.69;;;25.01;31.75
50854;BME280;44154;45.506;-122.806;2023-04-02T08:20:36;100707.88;;;25.17;31.03
50854;BME280;44154;45.506;-122.806;2023-04-02T08:23:03;100715.31;;;25.21;30.30
50854;BME280;44154;45.506;-122.806;2023-04-02T08:25:31;100717.47;;;25.19;30.10
50854;BME280;44154;45.506;-122.806;2023-04-02T08:27:57;100711.69;;;25.16;29.97
50854;BME280;44154;45.506;-122.806;2023-04-02T08:30:26;100716.03;;;25.11;29.91
50854;BME280;44154;45.506;-122.806;2023-04-02T08:32:52;100714.63;;;25.04;29.93
50854;BME280;44154;45.506;-122.806;2023-04-02T08:35:18;100693.38;;;24.89;29.84
50854;BME280;44154;45.506;-122.806;2023-04-02T08:37:44;100706.00;;;24.90;30.01
50854;BME280;44154;45.506;-122.806;2023-04-02T08:40:36;100700.16;;;24.81;30.01
50854;BME280;44154;45.506;-122.806;2023-04-02T08:48:39;100693.84;;;24.53;34.02
50854;BME280;44154;45.506;-122.806;2023-04-02T08:51:07;100686.72;;;24.52;34.05
50854;BME280;44154;45.506;-122.806;2023-04-02T08:53:38;100679.19;;;24.65;33.10
50854;BME280;44154;45.506;-122.806;2023-04-02T08:58:53;100662.91;;;24.75;31.79
50854;BME280;44154;45.506;-122.806;2023-04-02T09:04:08;100667.31;;;24.81;31.80
50854;BME280;44154;45.506;-122.806;2023-04-02T09:06:39;100654.97;;;24.79;31.66
50854;BME280;44154;45.506;-122.806;2023-04-02T09:09:07;100651.63;;;24.71;31.28
50854;BME280;44154;45.506;-122.806;2023-04-02T09:11:53;100664.53;;;24.76;31.43
50854;BME280;44154;45.506;-122.806;2023-04-02T09:17:01;100658.97;;;24.66;33.59
50854;BME280;44154;45.506;-122.806;2023-04-02T09:19:40;100653.56;;;24.49;33.85
50854;BME280;44154;45.506;-122.806;2023-04-02T09:22:29;100664.25;;;24.50;33.95
50854;BME280;44154;45.506;-122.806;2023-04-02T09:25:02;100661.50;;;24.72;33.02
50854;BME280;44154;45.506;-122.806;2023-04-02T09:27:34;100655.59;;;24.86;33.05
50854;BME280;44154;45.506;-122.806;2023-04-02T09:33:04;100649.03;;;24.87;32.67
50854;BME280;44154;45.506;-122.806;2023-04-02T09:35:53;100645.78;;;24.90;32.29
50854;BME280;44154;45.506;-122.806;2023-04-02T09:38:26;100638.88;;;24.82;32.31
50854;BME280;44154;45.506;-122.806;2023-04-02T09:41:05;100633.88;;;24.74;31.95
50854;BME280;44154;45.506;-122.806;2023-04-02T09:43:34;100646.94;;;24.67;31.98
50854;BME280;44154;45.506;-122.806;2023-04-02T09:46:24;100641.34;;;24.56;33.88
50854;BME280;44154;45.506;-122.806;2023-04-02T09:49:00;100640.47;;;24.51;33.90
50854;BME280;44154;45.506;-122.806;2023-04-02T09:51:31;100639.88;;;24.49;33.79
50854;BME280;44154;45.506;-122.806;2023-04-02T09:56:35;100626.25;;;24.81;33.49
50854;BME280;44154;45.506;-122.806;2023-04-02T10:01:37;100624.66;;;24.85;33.27
50854;BME280;44154;45.506;-122.806;2023-04-02T10:04:06;100621.34;;;24.83;32.74
50854;BME280;44154;45.506;-122.806;2023-04-02T10:06:51;100618.84;;;24.76;32.24
50854;BME280;44154;45.506;-122.806;2023-04-02T10:09:24;100610.31;;;24.73;32.26
50854;BME280;44154;45.506;-122.806;2023-04-02T10:11:55;100608.88;;;24.65;31.84
50854;BME280;44154;45.506;-122.806;2023-04-02T10:14:33;100616.00;;;24.66;33.39
50854;BME280;44154;45.506;-122.806;2023-04-02T10:19:51;100615.66;;;24.90;32.30
50854;BME280;44154;45.506;-122.806;2023-04-02T10:22:20;100617.19;;;25.13;32.46
50854;BME280;44154;45.506;-122.806;2023-04-02T10:24:47;100619.41;;;25.16;32.49
50854;BME280;44154;45.506;-122.806;2023-04-02T10:30:15;100611.16;;;25.11;32.65
50854;BME280;44154;45.506;-122.806;2023-04-02T10:33:00;100614.91;;;25.00;32.73
50854;BME280;44154;45.506;-122.806;2023-04-02T10:35:39;100608.00;;;24.92;32.42
50854;BME280;44154;45.506;-122.806;2023-04-02T10:40:57;100619.72;;;24.82;32.04
50854;BME280;44154;45.506;-122.806;2023-04-02T10:51:08;100609.16;;;24.64;33.25
50854;BME280;44154;45.506;-122.806;2023-04-02T10:56:33;100602.22;;;24.88;32.88
50854;BME280;44154;45.506;-122.806;2023-04-02T10:59:09;100599.19;;;24.85;32.82
50854;BME280;44154;45.506;-122.806;2023-04-02T11:01:40;100595.63;;;24.84;32.56
50854;BME280;44154;45.506;-122.806;2023-04-02T11:04:57;100572.25;;;24.71;32.50
50854;BME280;44154;45.506;-122.806;2023-04-02T11:07:07;100579.59;;;24.66;32.57
50854;BME280;44154;45.506;-122.806;2023-04-02T11:09:41;100596.34;;;24.69;32.33
50854;BME280;44154;45.506;-122.806;2023-04-02T11:12:20;100596.28;;;24.64;33.10
50854;BME280;44154;45.506;-122.806;2023-04-02T11:14:49;100585.47;;;24.52;33.45
50854;BME280;44154;45.506;-122.806;2023-04-02T11:17:18;100578.66;;;24.55;33.11
50854;BME280;44154;45.506;-122.806;2023-04-02T11:19:45;100574.78;;;24.78;32.65
50854;BME280;44154;45.506;-122.806;2023-04-02T11:22:23;100575.94;;;24.87;32.41
50854;BME280;44154;45.506;-122.806;2023-04-02T11:24:55;100572.66;;;24.85;32.31
50854;BME280;44154;45.506;-122.806;2023-04-02T11:27:33;100581.16;;;24.89;32.40
50854;BME280;44154;45.506;-122.806;2023-04-02T11:32:49;100570.44;;;24.82;32.26
50854;BME280;44154;45.506;-122.806;2023-04-02T11:37:59;100563.22;;;24.71;32.40
50854;BME280;44154;45.506;-122.806;2023-04-02T11:40:50;100567.47;;;24.56;33.16
50854;BME280;44154;45.506;-122.806;2023-04-02T11:46:03;100567.94;;;24.48;33.18
50854;BME280;44154;45.506;-122.806;2023-04-02T11:48:30;100574.13;;;24.66;32.91
50854;BME280;44154;45.506;-122.806;2023-04-02T11:50:58;100566.84;;;24.76;32.64
50854;BME280;44154;45.506;-122.806;2023-04-02T11:53:33;100564.16;;;24.87;32.39
50854;BME280;44154;45.506;-122.806;2023-04-02T11:56:08;100570.72;;;24.86;32.30
50854;BME280;44154;45.506;-122.806;2023-04-02T12:04:53;100559.19;;;24.79;32.30
50854;BME280;44154;45.506;-122.806;2023-04-02T12:10:22;100548.84;;;24.58;32.94
50854;BME280;44154;45.506;-122.806;2023-04-02T12:12:47;100543.63;;;24.52;33.21
50854;BME280;44154;45.506;-122.806;2023-04-02T12:15:46;100556.31;;;24.63;32.87
50854;BME280;44154;45.506;-122.806;2023-04-02T12:18:21;100552.03;;;24.77;32.50
50854;BME280;44154;45.506;-122.806;2023-04-02T12:20:51;100544.16;;;24.86;32.41
50854;BME280;44154;45.506;-122.806;2023-04-02T12:23:20;100542.28;;;24.87;32.09
50854;BME280;44154;45.506;-122.806;2023-04-02T12:26:21;100535.72;;;24.88;32.13
50854;BME280;44154;45.506;-122.806;2023-04-02T12:28:49;100537.06;;;24.85;32.30
50854;BME280;44154;45.506;-122.806;2023-04-02T12:31:16;100551.00;;;24.84;32.14
50854;BME280;44154;45.506;-122.806;2023-04-02T12:33:45;100543.56;;;24.79;32.15
50854;BME280;44154;45.506;-122.806;2023-04-02T12:38:55;100543.38;;;24.58;33.06
50854;BME280;44154;45.506;-122.806;2023-04-02T12:41:30;100548.56;;;24.55;33.26
50854;BME280;44154;45.506;-122.806;2023-04-02T12:44:01;100538.56;;;24.66;32.75
50854;BME280;44154;45.506;-122.806;2023-04-02T12:46:32;100545.22;;;24.80;32.36
50854;BME280;44154;45.506;-122.806;2023-04-02T12:49:07;100527.16;;;24.79;32.29
50854;BME280;44154;45.506;-122.806;2023-04-02T12:51:38;100542.56;;;24.90;32.03
50854;BME280;44154;45.506;-122.806;2023-04-02T12:54:05;100540.94;;;24.89;32.03
50854;BME280;44154;45.506;-122.806;2023-04-02T12:56:31;100531.53;;;24.80;31.94
50854;BME280;44154;45.506;-122.806;2023-04-02T12:58:59;100534.06;;;24.87;32.09
50854;BME280;44154;45.506;-122.806;2023-04-02T13:01:28;100529.13;;;24.84;31.99
50854;BME280;44154;45.506;-122.806;2023-04-02T13:04:05;100533.72;;;24.78;32.43
50854;BME280;44154;45.506;-122.806;2023-04-02T13:06:33;100536.88;;;24.65;32.75
50854;BME280;44154;45.506;-122.806;2023-04-02T13:09:02;100539.00;;;24.57;33.23
50854;BME280;44154;45.506;-122.806;2023-04-02T13:11:34;100538.25;;;24.62;32.66
50854;BME280;44154;45.506;-122.806;2023-04-02T13:14:02;100539.47;;;24.76;32.38
50854;BME280;44154;45.506;-122.806;2023-04-02T13:16:34;100533.22;;;24.86;32.20
50854;BME280;44154;45.506;-122.806;2023-04-02T13:19:30;100541.47;;;24.91;32.20
50854;BME280;44154;45.506;-122.806;2023-04-02T13:22:00;100536.00;;;24.91;31.81
50854;BME280;44154;45.506;-122.806;2023-04-02T13:24:31;100540.34;;;24.87;32.06
50854;BME280;44154;45.506;-122.806;2023-04-02T13:27:02;100531.59;;;24.85;31.97
50854;BME280;44154;45.506;-122.806;2023-04-02T13:29:32;100541.69;;;24.85;32.03
50854;BME280;44154;45.506;-122.806;2023-04-02T13:32:02;100543.06;;;24.82;32.03
50854;BME280;44154;45.506;-122.806;2023-04-02T13:34:28;100534.16;;;24.65;32.76
50854;BME280;44154;45.506;-122.806;2023-04-02T13:36:55;100529.78;;;24.64;32.33
50854;BME280;44154;45.506;-122.806;2023-04-02T13:39:22;100535.88;;;24.76;32.80
50854;BME280;44154;45.506;-122.806;2023-04-02T13:41:55;100534.88;;;24.87;32.18
50854;BME280;44154;45.506;-122.806;2023-04-02T13:44:24;100533.03;;;24.98;32.08
50854;BME280;44154;45.506;-122.806;2023-04-02T13:46:52;100538.53;;;25.03;31.87
50854;BME280;44154;45.506;-122.806;2023-04-02T13:49:19;100534.13;;;24.97;32.28
50854;BME280;44154;45.506;-122.806;2023-04-02T13:51:51;100537.59;;;24.82;32.60
50854;BME280;44154;45.506;-122.806;2023-04-02T13:54:48;100537.84;;;24.81;32.68
50854;BME280;44154;45.506;-122.806;2023-04-02T13:57:16;100527.72;;;24.81;32.56
50854;BME280;44154;45.506;-122.806;2023-04-02T13:59:42;100545.41;;;25.06;32.01
50854;BME280;44154;45.506;-122.806;2023-04-02T14:02:15;100541.59;;;25.12;31.75
50854;BME280;44154;45.506;-122.806;2023-04-02T14:04:47;100551.25;;;25.25;31.47
50854;BME280;44154;45.506;-122.806;2023-04-02T14:07:34;100557.03;;;25.28;31.66
50854;BME280;44154;45.506;-122.806;2023-04-02T14:10:15;100550.97;;;25.21;31.28
50854;BME280;44154;45.506;-122.806;2023-04-02T14:15:28;100542.16;;;25.14;31.87
50854;BME280;44154;45.506;-122.806;2023-04-02T14:21:01;100547.53;;;24.99;32.77
50854;BME280;44154;45.506;-122.806;2023-04-02T14:31:50;100527.03;;;25.44;31.74
50854;BME280;44154;45.506;-122.806;2023-04-02T14:40:05;100519.88;;;25.48;31.28
50854;BME280;44154;45.506;-122.806;2023-04-02T14:48:50;100532.19;;;25.40;31.02
50854;BME280;44154;45.506;-122.806;2023-04-02T14:50:58;100522.03;;;25.36;31.40
50854;BME280;44154;45.506;-122.806;2023-04-02T14:54:00;100542.97;;;25.62;31.18
50854;BME280;44154;45.506;-122.806;2023-04-02T14:56:24;100535.41;;;25.90;30.78
50854;BME280;44154;45.506;-122.806;2023-04-02T14:59:07;100535.44;;;26.01;31.15
50854;BME280;44154;45.506;-122.806;2023-04-02T15:01:42;100519.50;;;25.87;31.14
50854;BME280;44154;45.506;-122.806;2023-04-02T15:04:22;100543.03;;;25.88;31.45
50854;BME280;44154;45.506;-122.806;2023-04-02T15:06:55;100539.19;;;25.79;31.50
50854;BME280;44154;45.506;-122.806;2023-04-02T15:10:39;100535.59;;;25.68;31.41
50854;BME280;44154;45.506;-122.806;2023-04-02T15:12:45;100533.41;;;25.70;31.32
50854;BME280;44154;45.506;-122.806;2023-04-02T15:17:39;100532.53;;;25.59;31.52
50854;BME280;44154;45.506;-122.806;2023-04-02T15:20:16;100530.06;;;25.53;31.88
50854;BME280;44154;45.506;-122.806;2023-04-02T15:25:38;100530.97;;;25.84;31.32
50854;BME280;44154;45.506;-122.806;2023-04-02T15:28:26;100526.94;;;26.12;30.86
50854;BME280;44154;45.506;-122.806;2023-04-02T15:30:58;100519.56;;;26.23;30.70
50854;BME280;44154;45.506;-122.806;2023-04-02T15:53:08;100527.09;;;25.70;31.39
50854;BME280;44154;45.506;-122.806;2023-04-02T16:05:13;100526.47;;;25.47;32.22
50854;BME280;44154;45.506;-122.806;2023-04-02T16:08:23;100509.00;;;25.63;32.09
50854;BME280;44154;45.506;-122.806;2023-04-02T16:10:49;100522.19;;;25.72;31.82
50854;BME280;44154;45.506;-122.806;2023-04-02T16:16:18;100509.00;;;25.63;31.91